Vergennes, Vermont
Current Conditions -  °F | °C
As of 11:35 AM on Tuesday 21 Oct 2014 (Local Time) from K6B0 Reporting Station
Drizzle Drizzle  
Wind Chill: 46°   Ceiling: 5000
Heat Index: 49°   Visibility: 10mi
Dew Point: 46°   Wind: 7mph
Humidity: 90%   Direction: 160°SSE
Pressure: 29.96"   Gusts: NA
Location:  44.17°N, 73.25°W
Report Text: K6B0 211535Z AUTO 16006KT 10SM DZ OVC050 09/08 A2996 RMK AO2 T00930078
Loading
Personal Weather Stations






























Interactive Weather Map
Tropical Storm Tracking
New forecast layout! Learn more

10-Day Weather Forecast

Advertisements
Track Severe Weather on mobile